createdAt,value
2022-08-04T00:01:56.684Z,1.98
2022-08-04T00:07:58.616Z,1.83
2022-08-04T00:14:03.562Z,1.85
2022-08-04T00:20:06.717Z,2.58
2022-08-04T00:26:09.639Z,2.30
2022-08-04T00:32:11.160Z,2.00
2022-08-04T00:38:12.615Z,1.98
2022-08-04T00:44:14.187Z,1.83
2022-08-04T00:50:25.260Z,2.28
2022-08-04T00:56:27.583Z,1.98
2022-08-04T01:02:29.115Z,1.73
2022-08-04T01:08:30.593Z,1.70
2022-08-04T01:14:32.048Z,1.67
2022-08-04T01:20:33.524Z,1.90
2022-08-04T01:26:42.721Z,2.10
2022-08-04T01:32:55.054Z,1.70
2022-08-04T01:38:56.555Z,2.10
2022-08-04T01:44:58.032Z,2.03
2022-08-04T01:51:01.194Z,1.50
2022-08-04T01:57:37.104Z,2.00
2022-08-04T02:03:24.210Z,2.13
2022-08-04T02:09:54.651Z,1.90
2022-08-04T02:15:56.735Z,1.98
2022-08-04T02:21:58.217Z,2.00
2022-08-04T02:28:01.085Z,2.03
2022-08-04T02:34:02.672Z,1.60
2022-08-04T02:40:04.133Z,1.70
2022-08-04T02:46:05.579Z,2.05
2022-08-04T02:52:19.668Z,2.00
2022-08-04T02:58:21.124Z,2.10
2022-08-04T03:04:24.986Z,1.75
2022-08-04T03:10:26.840Z,1.90
2022-08-04T03:16:33.484Z,1.98
2022-08-04T03:22:41.964Z,1.65
2022-08-04T03:28:55.372Z,1.88
2022-08-04T03:34:56.875Z,1.70
2022-08-04T03:40:58.336Z,1.70
2022-08-04T03:46:59.805Z,1.95
2022-08-04T03:53:10.188Z,1.60
2022-08-04T03:59:11.638Z,1.70
2022-08-04T04:05:13.162Z,1.98
2022-08-04T04:11:14.621Z,2.22
2022-08-04T04:17:16.099Z,1.70
2022-08-04T04:23:17.549Z,3.28
2022-08-04T04:29:19.037Z,2.50
2022-08-04T04:35:20.642Z,1.73
2022-08-04T04:41:22.911Z,2.25
2022-08-04T04:48:06.986Z,2.00
2022-08-04T04:53:45.862Z,2.25
2022-08-04T04:59:47.401Z,2.08
2022-08-04T05:05:48.870Z,2.15
2022-08-04T05:11:50.331Z,1.98
2022-08-04T05:17:53.078Z,2.67
2022-08-04T05:23:54.657Z,3.33
2022-08-04T05:29:56.156Z,3.22
2022-08-04T05:36:19.177Z,3.28
2022-08-04T05:42:19.060Z,3.20
2022-08-04T05:48:24.848Z,3.10
2022-08-04T05:54:26.304Z,3.58
2022-08-04T06:00:40.735Z,4.43
2022-08-04T06:06:43.117Z,4.60
2022-08-04T06:12:44.580Z,5.05
2022-08-04T06:20:02.664Z,4.18
2022-08-04T06:25:07.769Z,4.72
2022-08-04T06:32:31.454Z,4.57
2022-08-04T06:37:43.749Z,3.97
2022-08-04T06:43:47.129Z,3.70
2022-08-04T06:51:27.410Z,3.83
2022-08-04T06:56:10.592Z,5.50
2022-08-04T07:02:12.181Z,3.58
2022-08-04T07:08:13.724Z,3.78
2022-08-04T07:14:15.299Z,3.28
2022-08-04T07:20:16.842Z,3.10
2022-08-04T07:26:36.723Z,3.17
2022-08-04T07:32:38.406Z,4.15
2022-08-04T07:38:48.549Z,3.65
2022-08-04T07:44:53.107Z,4.05
2022-08-04T07:50:54.637Z,3.60
2022-08-04T07:56:56.177Z,3.08
2022-08-04T08:02:57.956Z,2.95
2022-08-04T08:09:13.728Z,2.72
2022-08-04T08:15:16.098Z,3.60
2022-08-04T08:21:17.617Z,3.35
2022-08-04T08:27:19.481Z,3.45
2022-08-04T08:33:21.173Z,3.55
2022-08-04T08:39:24.743Z,3.83
2022-08-04T08:45:26.683Z,3.85
2022-08-04T08:51:31.704Z,3.83
2022-08-04T08:57:33.298Z,3.53
2022-08-04T09:03:34.877Z,3.50
2022-08-04T09:09:36.700Z,3.83
2022-08-04T09:15:38.217Z,3.50
2022-08-04T09:21:39.759Z,3.67
2022-08-04T09:27:41.383Z,3.50
2022-08-04T09:33:45.447Z,3.65
2022-08-04T09:39:52.001Z,3.92
2022-08-04T09:45:54.334Z,3.80
2022-08-04T09:51:58.987Z,4.28
2022-08-04T09:58:00.900Z,4.40
2022-08-04T10:04:02.433Z,3.55
2022-08-04T10:10:04.037Z,4.15
2022-08-04T10:16:06.396Z,4.03
2022-08-04T10:22:29.944Z,4.45
2022-08-04T10:28:29.625Z,4.43
2022-08-04T10:34:31.384Z,5.20
2022-08-04T10:40:41.015Z,4.28
2022-08-04T10:46:44.634Z,4.95
2022-08-04T10:52:46.205Z,4.47
2022-08-04T10:58:49.024Z,4.70
2022-08-04T11:04:50.654Z,4.80
2022-08-04T11:10:52.326Z,4.25
2022-08-04T11:16:53.961Z,4.63
2022-08-04T11:22:55.502Z,4.55
2022-08-04T11:29:03.851Z,4.05
2022-08-04T11:35:05.962Z,3.80
2022-08-04T11:41:07.645Z,3.80
2022-08-04T11:47:10.868Z,4.20
2022-08-04T11:53:13.349Z,4.53
2022-08-04T11:59:14.878Z,3.97
2022-08-04T12:05:32.408Z,4.30
2022-08-04T12:11:37.939Z,4.03
2022-08-04T12:17:52.633Z,4.53
2022-08-04T12:23:59.758Z,4.65
2022-08-04T12:30:57.369Z,4.75
2022-08-04T12:36:24.448Z,5.07
2022-08-04T12:42:25.997Z,8.02
2022-08-04T12:48:27.714Z,6.38
2022-08-04T12:54:29.482Z,7.63
2022-08-04T13:00:35.373Z,7.18
2022-08-04T13:06:41.720Z,7.30
2022-08-04T13:12:45.054Z,5.60
2022-08-04T13:18:46.585Z,6.80
2022-08-04T13:24:56.914Z,6.88
2022-08-04T13:31:10.178Z,6.68
2022-08-04T13:37:11.680Z,6.20
2022-08-04T13:44:16.860Z,6.15
2022-08-04T13:50:01.158Z,5.97
2022-08-04T13:56:05.707Z,6.50
2022-08-04T14:02:07.452Z,6.60
2022-08-04T14:08:09.017Z,5.93
2022-08-04T14:14:10.538Z,6.70
2022-08-04T14:20:12.026Z,6.13
2022-08-04T14:26:13.523Z,5.43
2022-08-04T14:32:15.027Z,5.72
2022-08-04T14:38:23.015Z,5.93
2022-08-04T14:44:24.973Z,5.32
2022-08-04T14:50:26.439Z,5.57
2022-08-04T14:56:46.143Z,6.05
2022-08-04T15:02:48.477Z,5.75
2022-08-04T15:08:50.032Z,5.22
2022-08-04T15:14:51.768Z,5.72
2022-08-04T15:20:53.293Z,5.82
2022-08-04T15:26:54.759Z,5.50
2022-08-04T15:32:56.274Z,6.78
2022-08-04T15:38:57.931Z,6.45
2022-08-04T15:45:00.364Z,5.85
2022-08-04T15:51:03.858Z,6.30
2022-08-04T15:57:05.376Z,5.80
2022-08-04T16:03:07.331Z,6.15
2022-08-04T16:09:08.877Z,5.70
2022-08-04T16:15:10.317Z,6.15
2022-08-04T16:21:12.113Z,5.65
2022-08-04T16:27:14.102Z,6.72
2022-08-04T16:33:15.707Z,6.20
2022-08-04T16:39:17.751Z,7.30
2022-08-04T16:45:19.715Z,7.40
2022-08-04T16:51:21.272Z,7.00
2022-08-04T16:57:22.720Z,5.93
2022-08-04T17:03:24.270Z,6.95
2022-08-04T17:09:28.767Z,7.38
2022-08-04T17:15:30.431Z,6.30
2022-08-04T17:21:31.968Z,7.38
2022-08-04T17:28:19.452Z,9.02
2022-08-04T17:33:56.567Z,9.15
2022-08-04T17:39:58.259Z,8.32
2022-08-04T17:46:01.337Z,8.95
2022-08-04T17:52:09.996Z,8.25
2022-08-04T17:58:13.677Z,8.85
2022-08-04T18:04:23.182Z,7.32
2022-08-04T18:10:38.439Z,7.50
2022-08-04T18:16:46.499Z,7.85
2022-08-04T18:22:48.077Z,7.43
2022-08-04T18:28:49.658Z,8.85
2022-08-04T18:34:54.485Z,8.45
2022-08-04T18:40:56.915Z,8.10
2022-08-04T18:47:19.264Z,8.80
2022-08-04T18:53:21.672Z,9.50
2022-08-04T18:59:24.137Z,8.82
2022-08-04T19:05:38.025Z,8.00
2022-08-04T19:11:54.720Z,7.68
2022-08-04T19:17:59.924Z,7.88
2022-08-04T19:24:28.468Z,7.68
2022-08-04T19:30:24.342Z,10.35
2022-08-04T19:36:28.659Z,9.18
2022-08-04T19:42:30.525Z,8.77
2022-08-04T19:48:33.020Z,9.50
2022-08-04T19:54:34.740Z,8.90
2022-08-04T20:00:39.044Z,9.00
2022-08-04T20:06:40.888Z,9.63
2022-08-04T20:12:42.947Z,8.35
2022-08-04T20:18:56.857Z,8.40
2022-08-04T20:25:18.356Z,8.60
2022-08-04T20:31:21.678Z,8.65
2022-08-04T20:37:24.124Z,9.05
2022-08-04T20:43:26.025Z,9.45
2022-08-04T20:49:35.434Z,8.95
2022-08-04T20:55:54.568Z,8.73
2022-08-04T21:01:57.210Z,9.02
2022-08-04T21:08:00.340Z,9.57
2022-08-04T21:14:03.465Z,8.32
2022-08-04T21:20:07.288Z,7.55
2022-08-04T21:26:14.712Z,7.40
2022-08-04T21:32:21.694Z,7.55
2022-08-04T21:38:28.826Z,6.72
2022-08-04T21:44:30.821Z,6.85
2022-08-04T21:50:34.200Z,7.20
2022-08-04T21:56:35.752Z,6.78
2022-08-04T22:02:39.526Z,7.07
2022-08-04T22:08:41.047Z,7.70
2022-08-04T22:14:57.583Z,7.05
2022-08-04T22:21:01.114Z,6.82
2022-08-04T22:27:02.621Z,6.53
2022-08-04T22:33:11.835Z,7.00
2022-08-04T22:39:13.698Z,7.72
2022-08-04T22:45:16.554Z,6.43
2022-08-04T22:51:18.071Z,6.40
2022-08-04T22:57:19.596Z,6.07
2022-08-04T23:03:41.228Z,6.45
2022-08-04T23:09:53.565Z,6.10
2022-08-04T23:15:55.889Z,6.35
2022-08-04T23:22:01.883Z,6.32
2022-08-04T23:28:03.734Z,5.43
2022-08-04T23:34:05.647Z,5.43
2022-08-04T23:40:33.033Z,5.60
2022-08-04T23:46:31.329Z,5.43
2022-08-04T23:52:32.772Z,5.55
2022-08-04T23:58:36.161Z,5.50
